sensor_id;sensor_type;location;lat;lon;timestamp;P1;durP1;ratioP1;P2;durP2;ratioP2
42084;SDS011;27746;52.228;20.890;2023-06-26T00:00:18;27.92;;;8.60;;
42084;SDS011;27746;52.228;20.890;2023-06-26T00:02:45;31.17;;;9.15;;
42084;SDS011;27746;52.228;20.890;2023-06-26T00:05:12;31.83;;;8.05;;
42084;SDS011;27746;52.228;20.890;2023-06-26T00:07:39;29.98;;;8.30;;
42084;SDS011;27746;52.228;20.890;2023-06-26T00:10:08;21.85;;;8.63;;
42084;SDS011;27746;52.228;20.890;2023-06-26T00:12:37;13.77;;;7.28;;
42084;SDS011;27746;52.228;20.890;2023-06-26T00:15:04;21.05;;;7.60;;
42084;SDS011;27746;52.228;20.890;2023-06-26T00:17:33;19.38;;;6.90;;
42084;SDS011;27746;52.228;20.890;2023-06-26T00:20:02;21.10;;;6.90;;
42084;SDS011;27746;52.228;20.890;2023-06-26T00:22:30;24.70;;;8.15;;
42084;SDS011;27746;52.228;20.890;2023-06-26T00:24:57;20.58;;;7.90;;
42084;SDS011;27746;52.228;20.890;2023-06-26T00:27:24;17.58;;;7.57;;
42084;SDS011;27746;52.228;20.890;2023-06-26T00:29:52;26.60;;;8.38;;
42084;SDS011;27746;52.228;20.890;2023-06-26T00:32:20;24.15;;;8.02;;
42084;SDS011;27746;52.228;20.890;2023-06-26T00:34:46;23.00;;;7.38;;
42084;SDS011;27746;52.228;20.890;2023-06-26T00:37:13;18.95;;;7.22;;
42084;SDS011;27746;52.228;20.890;2023-06-26T00:39:40;24.70;;;7.22;;
42084;SDS011;27746;52.228;20.890;2023-06-26T00:42:08;26.40;;;8.68;;
42084;SDS011;27746;52.228;20.890;2023-06-26T00:44:35;19.23;;;7.30;;
42084;SDS011;27746;52.228;20.890;2023-06-26T00:47:03;24.67;;;8.50;;
42084;SDS011;27746;52.228;20.890;2023-06-26T00:49:31;18.98;;;7.15;;
42084;SDS011;27746;52.228;20.890;2023-06-26T00:51:58;26.30;;;8.07;;
42084;SDS011;27746;52.228;20.890;2023-06-26T00:54:25;19.27;;;7.10;;
42084;SDS011;27746;52.228;20.890;2023-06-26T00:56:52;20.58;;;6.95;;
42084;SDS011;27746;52.228;20.890;2023-06-26T00:59:21;19.58;;;7.82;;
42084;SDS011;27746;52.228;20.890;2023-06-26T01:01:48;30.55;;;9.43;;
42084;SDS011;27746;52.228;20.890;2023-06-26T01:04:16;23.95;;;8.63;;
42084;SDS011;27746;52.228;20.890;2023-06-26T01:06:43;22.67;;;7.72;;
42084;SDS011;27746;52.228;20.890;2023-06-26T01:09:13;17.73;;;7.80;;
42084;SDS011;27746;52.228;20.890;2023-06-26T01:11:41;16.92;;;6.82;;
42084;SDS011;27746;52.228;20.890;2023-06-26T01:14:08;31.00;;;7.93;;
42084;SDS011;27746;52.228;20.890;2023-06-26T01:16:35;22.20;;;7.28;;
42084;SDS011;27746;52.228;20.890;2023-06-26T01:19:05;19.30;;;6.57;;
42084;SDS011;27746;52.228;20.890;2023-06-26T01:21:40;23.50;;;6.60;;
42084;SDS011;27746;52.228;20.890;2023-06-26T01:24:12;16.65;;;6.97;;
42084;SDS011;27746;52.228;20.890;2023-06-26T01:26:47;15.88;;;6.50;;
42084;SDS011;27746;52.228;20.890;2023-06-26T01:29:17;12.82;;;6.53;;
42084;SDS011;27746;52.228;20.890;2023-06-26T01:31:46;17.13;;;7.95;;
42084;SDS011;27746;52.228;20.890;2023-06-26T01:34:15;17.02;;;7.00;;
42084;SDS011;27746;52.228;20.890;2023-06-26T01:36:44;21.48;;;7.63;;
42084;SDS011;27746;52.228;20.890;2023-06-26T01:39:12;18.65;;;6.65;;
42084;SDS011;27746;52.228;20.890;2023-06-26T01:41:41;22.50;;;6.88;;
42084;SDS011;27746;52.228;20.890;2023-06-26T01:44:14;21.45;;;7.78;;
42084;SDS011;27746;52.228;20.890;2023-06-26T01:46:54;14.15;;;7.38;;
42084;SDS011;27746;52.228;20.890;2023-06-26T01:49:38;21.65;;;7.07;;
42084;SDS011;27746;52.228;20.890;2023-06-26T01:52:14;15.70;;;7.20;;
42084;SDS011;27746;52.228;20.890;2023-06-26T01:54:47;14.57;;;7.03;;
42084;SDS011;27746;52.228;20.890;2023-06-26T01:57:19;17.35;;;7.20;;
42084;SDS011;27746;52.228;20.890;2023-06-26T01:59:50;15.73;;;7.65;;
42084;SDS011;27746;52.228;20.890;2023-06-26T02:02:17;14.18;;;6.35;;
42084;SDS011;27746;52.228;20.890;2023-06-26T02:04:45;12.35;;;7.32;;
42084;SDS011;27746;52.228;20.890;2023-06-26T02:07:13;11.35;;;6.80;;
42084;SDS011;27746;52.228;20.890;2023-06-26T02:09:41;14.43;;;7.43;;
42084;SDS011;27746;52.228;20.890;2023-06-26T02:12:08;12.95;;;7.05;;
42084;SDS011;27746;52.228;20.890;2023-06-26T02:14:35;11.93;;;6.57;;
42084;SDS011;27746;52.228;20.890;2023-06-26T02:17:04;12.27;;;7.10;;
42084;SDS011;27746;52.228;20.890;2023-06-26T02:19:33;12.00;;;7.05;;
42084;SDS011;27746;52.228;20.890;2023-06-26T02:22:01;13.10;;;7.30;;
42084;SDS011;27746;52.228;20.890;2023-06-26T02:24:28;12.48;;;7.18;;
42084;SDS011;27746;52.228;20.890;2023-06-26T02:26:55;12.35;;;6.72;;
42084;SDS011;27746;52.228;20.890;2023-06-26T02:29:22;11.25;;;6.35;;
42084;SDS011;27746;52.228;20.890;2023-06-26T02:31:50;14.23;;;8.18;;
42084;SDS011;27746;52.228;20.890;2023-06-26T02:34:18;12.60;;;7.60;;
42084;SDS011;27746;52.228;20.890;2023-06-26T02:36:45;14.18;;;7.93;;
42084;SDS011;27746;52.228;20.890;2023-06-26T02:39:12;12.63;;;7.13;;
42084;SDS011;27746;52.228;20.890;2023-06-26T02:41:39;12.38;;;7.30;;
42084;SDS011;27746;52.228;20.890;2023-06-26T02:44:06;15.88;;;7.30;;
42084;SDS011;27746;52.228;20.890;2023-06-26T02:46:33;16.15;;;7.47;;
42084;SDS011;27746;52.228;20.890;2023-06-26T02:49:00;11.48;;;7.32;;
42084;SDS011;27746;52.228;20.890;2023-06-26T02:51:28;11.77;;;6.30;;
42084;SDS011;27746;52.228;20.890;2023-06-26T02:53:55;12.63;;;6.78;;
42084;SDS011;27746;52.228;20.890;2023-06-26T02:56:22;13.50;;;7.20;;
42084;SDS011;27746;52.228;20.890;2023-06-26T02:58:49;11.30;;;7.28;;
42084;SDS011;27746;52.228;20.890;2023-06-26T03:01:16;12.93;;;6.78;;
42084;SDS011;27746;52.228;20.890;2023-06-26T03:03:45;11.38;;;6.55;;
42084;SDS011;27746;52.228;20.890;2023-06-26T03:06:13;11.98;;;6.18;;
42084;SDS011;27746;52.228;20.890;2023-06-26T03:08:41;11.85;;;7.80;;
42084;SDS011;27746;52.228;20.890;2023-06-26T03:11:08;15.32;;;7.07;;
42084;SDS011;27746;52.228;20.890;2023-06-26T03:13:36;13.23;;;6.90;;
42084;SDS011;27746;52.228;20.890;2023-06-26T03:16:03;14.23;;;7.30;;
42084;SDS011;27746;52.228;20.890;2023-06-26T03:18:31;13.75;;;7.38;;
42084;SDS011;27746;52.228;20.890;2023-06-26T03:20:58;11.95;;;7.20;;
42084;SDS011;27746;52.228;20.890;2023-06-26T03:23:25;13.07;;;6.65;;
42084;SDS011;27746;52.228;20.890;2023-06-26T03:25:54;12.20;;;6.85;;
42084;SDS011;27746;52.228;20.890;2023-06-26T03:28:21;14.10;;;7.85;;
42084;SDS011;27746;52.228;20.890;2023-06-26T03:30:48;13.52;;;8.35;;
42084;SDS011;27746;52.228;20.890;2023-06-26T03:33:15;12.82;;;7.32;;
42084;SDS011;27746;52.228;20.890;2023-06-26T03:35:42;14.23;;;7.75;;
42084;SDS011;27746;52.228;20.890;2023-06-26T03:38:09;14.38;;;9.20;;
42084;SDS011;27746;52.228;20.890;2023-06-26T03:40:36;14.27;;;8.93;;
42084;SDS011;27746;52.228;20.890;2023-06-26T03:43:04;12.98;;;8.05;;
42084;SDS011;27746;52.228;20.890;2023-06-26T03:45:31;14.40;;;6.97;;
42084;SDS011;27746;52.228;20.890;2023-06-26T03:47:58;12.65;;;7.53;;
42084;SDS011;27746;52.228;20.890;2023-06-26T03:50:25;12.60;;;7.15;;
42084;SDS011;27746;52.228;20.890;2023-06-26T03:52:52;14.43;;;8.48;;
42084;SDS011;27746;52.228;20.890;2023-06-26T03:55:19;12.27;;;7.85;;
42084;SDS011;27746;52.228;20.890;2023-06-26T03:57:47;12.18;;;7.50;;
42084;SDS011;27746;52.228;20.890;2023-06-26T04:00:16;13.80;;;7.20;;
42084;SDS011;27746;52.228;20.890;2023-06-26T04:02:43;13.50;;;7.70;;
42084;SDS011;27746;52.228;20.890;2023-06-26T04:05:10;13.90;;;8.60;;
42084;SDS011;27746;52.228;20.890;2023-06-26T04:07:37;16.55;;;8.80;;
42084;SDS011;27746;52.228;20.890;2023-06-26T04:10:05;13.88;;;8.48;;
42084;SDS011;27746;52.228;20.890;2023-06-26T04:12:32;14.18;;;7.55;;
42084;SDS011;27746;52.228;20.890;2023-06-26T04:15:00;13.77;;;8.98;;
42084;SDS011;27746;52.228;20.890;2023-06-26T04:17:29;14.95;;;8.18;;
42084;SDS011;27746;52.228;20.890;2023-06-26T04:19:55;13.43;;;8.55;;
42084;SDS011;27746;52.228;20.890;2023-06-26T04:22:22;12.65;;;7.22;;
42084;SDS011;27746;52.228;20.890;2023-06-26T04:24:50;16.35;;;8.68;;
42084;SDS011;27746;52.228;20.890;2023-06-26T04:27:17;15.20;;;8.35;;
42084;SDS011;27746;52.228;20.890;2023-06-26T04:29:44;14.82;;;9.02;;
42084;SDS011;27746;52.228;20.890;2023-06-26T04:32:11;16.17;;;8.25;;
42084;SDS011;27746;52.228;20.890;2023-06-26T04:34:39;12.93;;;7.72;;
42084;SDS011;27746;52.228;20.890;2023-06-26T04:37:08;13.60;;;8.05;;
42084;SDS011;27746;52.228;20.890;2023-06-26T04:39:41;13.82;;;8.50;;
42084;SDS011;27746;52.228;20.890;2023-06-26T04:42:08;15.20;;;7.80;;
42084;SDS011;27746;52.228;20.890;2023-06-26T04:44:37;14.80;;;7.78;;
42084;SDS011;27746;52.228;20.890;2023-06-26T04:47:06;12.93;;;8.25;;
42084;SDS011;27746;52.228;20.890;2023-06-26T04:49:33;17.92;;;8.65;;
42084;SDS011;27746;52.228;20.890;2023-06-26T04:52:01;14.10;;;8.45;;
42084;SDS011;27746;52.228;20.890;2023-06-26T04:54:28;14.20;;;8.82;;
42084;SDS011;27746;52.228;20.890;2023-06-26T04:56:56;11.52;;;7.63;;
42084;SDS011;27746;52.228;20.890;2023-06-26T04:59:24;13.70;;;8.07;;
42084;SDS011;27746;52.228;20.890;2023-06-26T05:01:53;16.10;;;8.40;;
42084;SDS011;27746;52.228;20.890;2023-06-26T05:04:20;16.25;;;7.95;;
42084;SDS011;27746;52.228;20.890;2023-06-26T05:06:48;12.82;;;8.05;;
42084;SDS011;27746;52.228;20.890;2023-06-26T05:09:16;13.15;;;8.25;;
42084;SDS011;27746;52.228;20.890;2023-06-26T05:11:43;12.13;;;8.23;;
42084;SDS011;27746;52.228;20.890;2023-06-26T05:14:10;12.77;;;8.13;;
42084;SDS011;27746;52.228;20.890;2023-06-26T05:16:38;13.63;;;7.88;;
42084;SDS011;27746;52.228;20.890;2023-06-26T05:19:05;12.98;;;7.95;;
42084;SDS011;27746;52.228;20.890;2023-06-26T05:21:33;12.50;;;7.95;;
42084;SDS011;27746;52.228;20.890;2023-06-26T05:24:00;15.20;;;8.70;;
42084;SDS011;27746;52.228;20.890;2023-06-26T05:26:31;13.50;;;8.02;;
42084;SDS011;27746;52.228;20.890;2023-06-26T05:28:58;13.27;;;7.97;;
42084;SDS011;27746;52.228;20.890;2023-06-26T05:31:26;13.38;;;7.30;;
42084;SDS011;27746;52.228;20.890;2023-06-26T05:33:53;14.75;;;8.50;;
42084;SDS011;27746;52.228;20.890;2023-06-26T05:36:23;13.75;;;8.32;;
42084;SDS011;27746;52.228;20.890;2023-06-26T05:38:51;13.68;;;7.72;;
42084;SDS011;27746;52.228;20.890;2023-06-26T05:41:19;14.60;;;8.25;;
42084;SDS011;27746;52.228;20.890;2023-06-26T05:43:47;13.27;;;7.72;;
42084;SDS011;27746;52.228;20.890;2023-06-26T05:46:14;14.38;;;7.78;;
42084;SDS011;27746;52.228;20.890;2023-06-26T05:48:41;19.70;;;9.05;;
42084;SDS011;27746;52.228;20.890;2023-06-26T05:51:09;17.00;;;7.85;;
42084;SDS011;27746;52.228;20.890;2023-06-26T05:53:36;22.38;;;8.45;;
42084;SDS011;27746;52.228;20.890;2023-06-26T05:56:03;22.05;;;8.02;;
42084;SDS011;27746;52.228;20.890;2023-06-26T05:58:31;15.52;;;7.30;;
42084;SDS011;27746;52.228;20.890;2023-06-26T06:01:00;14.57;;;6.70;;
42084;SDS011;27746;52.228;20.890;2023-06-26T06:03:27;16.70;;;8.15;;
42084;SDS011;27746;52.228;20.890;2023-06-26T06:05:53;19.45;;;7.55;;
42084;SDS011;27746;52.228;20.890;2023-06-26T06:08:21;17.92;;;7.40;;
42084;SDS011;27746;52.228;20.890;2023-06-26T06:10:48;15.80;;;7.82;;
42084;SDS011;27746;52.228;20.890;2023-06-26T06:13:15;12.48;;;8.02;;
42084;SDS011;27746;52.228;20.890;2023-06-26T06:15:42;13.30;;;7.15;;
42084;SDS011;27746;52.228;20.890;2023-06-26T06:18:10;9.45;;;6.50;;
42084;SDS011;27746;52.228;20.890;2023-06-26T06:20:37;13.93;;;6.82;;
42084;SDS011;27746;52.228;20.890;2023-06-26T06:23:04;12.82;;;6.25;;
42084;SDS011;27746;52.228;20.890;2023-06-26T06:25:32;14.90;;;6.38;;
42084;SDS011;27746;52.228;20.890;2023-06-26T06:27:59;12.25;;;5.38;;
42084;SDS011;27746;52.228;20.890;2023-06-26T06:30:26;9.07;;;5.63;;
42084;SDS011;27746;52.228;20.890;2023-06-26T06:32:53;11.02;;;5.38;;
42084;SDS011;27746;52.228;20.890;2023-06-26T06:35:22;12.60;;;5.15;;
42084;SDS011;27746;52.228;20.890;2023-06-26T06:37:49;11.30;;;5.82;;
42084;SDS011;27746;52.228;20.890;2023-06-26T06:40:16;6.68;;;5.13;;
42084;SDS011;27746;52.228;20.890;2023-06-26T06:42:43;8.27;;;5.30;;
42084;SDS011;27746;52.228;20.890;2023-06-26T06:45:10;8.77;;;5.82;;
42084;SDS011;27746;52.228;20.890;2023-06-26T06:47:37;8.13;;;5.47;;
42084;SDS011;27746;52.228;20.890;2023-06-26T06:50:05;8.95;;;4.90;;
42084;SDS011;27746;52.228;20.890;2023-06-26T06:52:36;9.93;;;4.93;;
42084;SDS011;27746;52.228;20.890;2023-06-26T06:55:03;8.32;;;4.65;;
42084;SDS011;27746;52.228;20.890;2023-06-26T06:57:33;8.02;;;4.35;;
42084;SDS011;27746;52.228;20.890;2023-06-26T07:00:02;9.75;;;4.72;;
42084;SDS011;27746;52.228;20.890;2023-06-26T07:02:30;7.70;;;4.82;;
42084;SDS011;27746;52.228;20.890;2023-06-26T07:04:57;7.22;;;4.57;;
42084;SDS011;27746;52.228;20.890;2023-06-26T07:07:27;7.85;;;4.57;;
42084;SDS011;27746;52.228;20.890;2023-06-26T07:09:58;8.88;;;4.60;;
42084;SDS011;27746;52.228;20.890;2023-06-26T07:12:25;6.97;;;4.05;;
42084;SDS011;27746;52.228;20.890;2023-06-26T07:14:52;7.80;;;3.78;;
42084;SDS011;27746;52.228;20.890;2023-06-26T07:17:19;6.57;;;3.80;;
42084;SDS011;27746;52.228;20.890;2023-06-26T07:19:47;7.43;;;4.07;;
42084;SDS011;27746;52.228;20.890;2023-06-26T07:22:14;7.32;;;4.55;;
42084;SDS011;27746;52.228;20.890;2023-06-26T07:24:41;7.43;;;4.18;;
42084;SDS011;27746;52.228;20.890;2023-06-26T07:27:10;5.95;;;4.10;;
42084;SDS011;27746;52.228;20.890;2023-06-26T07:29:37;7.18;;;4.13;;
42084;SDS011;27746;52.228;20.890;2023-06-26T07:32:04;7.72;;;4.82;;
42084;SDS011;27746;52.228;20.890;2023-06-26T07:34:31;6.32;;;3.88;;
42084;SDS011;27746;52.228;20.890;2023-06-26T07:36:58;5.93;;;3.90;;
42084;SDS011;27746;52.228;20.890;2023-06-26T07:39:26;5.93;;;4.20;;
42084;SDS011;27746;52.228;20.890;2023-06-26T07:41:53;7.38;;;4.00;;
42084;SDS011;27746;52.228;20.890;2023-06-26T07:44:22;8.82;;;4.57;;
42084;SDS011;27746;52.228;20.890;2023-06-26T07:46:48;6.00;;;3.75;;
42084;SDS011;27746;52.228;20.890;2023-06-26T07:49:15;9.73;;;4.68;;
42084;SDS011;27746;52.228;20.890;2023-06-26T07:51:43;8.45;;;4.40;;
42084;SDS011;27746;52.228;20.890;2023-06-26T07:54:10;11.52;;;5.53;;
42084;SDS011;27746;52.228;20.890;2023-06-26T07:56:51;13.07;;;6.68;;
42084;SDS011;27746;52.228;20.890;2023-06-26T07:59:19;8.35;;;4.85;;
42084;SDS011;27746;52.228;20.890;2023-06-26T08:01:48;7.40;;;4.32;;
42084;SDS011;27746;52.228;20.890;2023-06-26T08:04:17;8.35;;;4.70;;
42084;SDS011;27746;52.228;20.890;2023-06-26T08:06:44;6.18;;;4.25;;
42084;SDS011;27746;52.228;20.890;2023-06-26T08:09:11;6.60;;;4.38;;
42084;SDS011;27746;52.228;20.890;2023-06-26T08:11:38;7.72;;;4.85;;
42084;SDS011;27746;52.228;20.890;2023-06-26T08:14:05;9.90;;;4.65;;
42084;SDS011;27746;52.228;20.890;2023-06-26T08:16:32;6.90;;;4.10;;
42084;SDS011;27746;52.228;20.890;2023-06-26T08:19:00;6.75;;;4.35;;
42084;SDS011;27746;52.228;20.890;2023-06-26T08:21:27;5.32;;;3.72;;
42084;SDS011;27746;52.228;20.890;2023-06-26T08:23:55;7.15;;;4.53;;
42084;SDS011;27746;52.228;20.890;2023-06-26T08:26:22;8.00;;;4.05;;
42084;SDS011;27746;52.228;20.890;2023-06-26T08:28:48;7.63;;;4.30;;
42084;SDS011;27746;52.228;20.890;2023-06-26T08:31:15;8.38;;;4.30;;
42084;SDS011;27746;52.228;20.890;2023-06-26T08:33:42;8.55;;;5.28;;
42084;SDS011;27746;52.228;20.890;2023-06-26T08:36:11;7.03;;;4.25;;
42084;SDS011;27746;52.228;20.890;2023-06-26T08:38:37;5.30;;;3.50;;
42084;SDS011;27746;52.228;20.890;2023-06-26T08:41:06;6.03;;;3.85;;
42084;SDS011;27746;52.228;20.890;2023-06-26T08:43:33;9.65;;;4.35;;
42084;SDS011;27746;52.228;20.890;2023-06-26T08:46:00;7.22;;;4.20;;
42084;SDS011;27746;52.228;20.890;2023-06-26T08:48:28;7.80;;;4.35;;
42084;SDS011;27746;52.228;20.890;2023-06-26T08:50:57;5.30;;;3.67;;
42084;SDS011;27746;52.228;20.890;2023-06-26T08:53:33;7.65;;;3.78;;
42084;SDS011;27746;52.228;20.890;2023-06-26T08:56:07;7.80;;;3.65;;
42084;SDS011;27746;52.228;20.890;2023-06-26T08:58:35;5.43;;;3.85;;
42084;SDS011;27746;52.228;20.890;2023-06-26T09:01:02;5.07;;;3.38;;
42084;SDS011;27746;52.228;20.890;2023-06-26T09:03:31;6.90;;;3.75;;
42084;SDS011;27746;52.228;20.890;2023-06-26T09:05:58;4.63;;;3.28;;
42084;SDS011;27746;52.228;20.890;2023-06-26T09:08:25;5.93;;;3.30;;
42084;SDS011;27746;52.228;20.890;2023-06-26T09:10:54;5.28;;;3.42;;
42084;SDS011;27746;52.228;20.890;2023-06-26T09:13:21;7.50;;;3.88;;
42084;SDS011;27746;52.228;20.890;2023-06-26T09:15:48;6.25;;;3.35;;
42084;SDS011;27746;52.228;20.890;2023-06-26T09:18:16;5.78;;;4.25;;
42084;SDS011;27746;52.228;20.890;2023-06-26T09:20:44;6.50;;;3.58;;
42084;SDS011;27746;52.228;20.890;2023-06-26T09:23:11;5.97;;;3.40;;
42084;SDS011;27746;52.228;20.890;2023-06-26T09:25:38;5.70;;;3.80;;
42084;SDS011;27746;52.228;20.890;2023-06-26T09:28:09;6.40;;;4.03;;
42084;SDS011;27746;52.228;20.890;2023-06-26T09:30:36;7.60;;;3.90;;
42084;SDS011;27746;52.228;20.890;2023-06-26T09:33:13;4.70;;;3.17;;
42084;SDS011;27746;52.228;20.890;2023-06-26T09:35:41;5.10;;;3.45;;
42084;SDS011;27746;52.228;20.890;2023-06-26T09:38:08;6.68;;;3.40;;
42084;SDS011;27746;52.228;20.890;2023-06-26T09:40:35;7.05;;;4.30;;
42084;SDS011;27746;52.228;20.890;2023-06-26T09:43:03;5.85;;;4.43;;
42084;SDS011;27746;52.228;20.890;2023-06-26T09:45:32;5.93;;;3.22;;
42084;SDS011;27746;52.228;20.890;2023-06-26T09:48:00;6.57;;;3.60;;
42084;SDS011;27746;52.228;20.890;2023-06-26T09:50:28;7.35;;;3.88;;
42084;SDS011;27746;52.228;20.890;2023-06-26T09:52:57;4.65;;;3.22;;
42084;SDS011;27746;52.228;20.890;2023-06-26T09:55:24;4.95;;;3.35;;
42084;SDS011;27746;52.228;20.890;2023-06-26T09:57:52;6.00;;;3.38;;
42084;SDS011;27746;52.228;20.890;2023-06-26T10:00:25;6.85;;;3.53;;
42084;SDS011;27746;52.228;20.890;2023-06-26T10:02:53;5.35;;;3.53;;
42084;SDS011;27746;52.228;20.890;2023-06-26T10:05:20;6.70;;;3.83;;
42084;SDS011;27746;52.228;20.890;2023-06-26T10:07:47;7.53;;;4.53;;
42084;SDS011;27746;52.228;20.890;2023-06-26T10:10:14;4.45;;;2.72;;
42084;SDS011;27746;52.228;20.890;2023-06-26T10:12:43;4.60;;;3.17;;
42084;SDS011;27746;52.228;20.890;2023-06-26T10:15:12;4.18;;;3.10;;
42084;SDS011;27746;52.228;20.890;2023-06-26T10:17:42;6.50;;;3.35;;
42084;SDS011;27746;52.228;20.890;2023-06-26T10:20:11;5.22;;;3.13;;
42084;SDS011;27746;52.228;20.890;2023-06-26T10:22:43;7.03;;;3.20;;
42084;SDS011;27746;52.228;20.890;2023-06-26T10:25:12;5.15;;;3.25;;
42084;SDS011;27746;52.228;20.890;2023-06-26T10:27:44;6.93;;;3.28;;
42084;SDS011;27746;52.228;20.890;2023-06-26T10:30:14;6.00;;;3.30;;
42084;SDS011;27746;52.228;20.890;2023-06-26T10:32:46;5.82;;;3.60;;
42084;SDS011;27746;52.228;20.890;2023-06-26T10:35:14;5.68;;;3.20;;
42084;SDS011;27746;52.228;20.890;2023-06-26T10:37:43;5.20;;;3.22;;
42084;SDS011;27746;52.228;20.890;2023-06-26T10:40:10;6.68;;;3.25;;
42084;SDS011;27746;52.228;20.890;2023-06-26T10:42:38;5.65;;;3.22;;
42084;SDS011;27746;52.228;20.890;2023-06-26T10:45:09;7.00;;;4.95;;
42084;SDS011;27746;52.228;20.890;2023-06-26T10:47:37;7.28;;;3.83;;
42084;SDS011;27746;52.228;20.890;2023-06-26T10:50:17;7.15;;;3.42;;
42084;SDS011;27746;52.228;20.890;2023-06-26T10:52:45;5.63;;;3.08;;
42084;SDS011;27746;52.228;20.890;2023-06-26T10:55:32;5.13;;;3.50;;
42084;SDS011;27746;52.228;20.890;2023-06-26T10:57:59;4.78;;;3.10;;
42084;SDS011;27746;52.228;20.890;2023-06-26T11:00:28;5.60;;;2.92;;
42084;SDS011;27746;52.228;20.890;2023-06-26T11:02:55;5.20;;;2.90;;
42084;SDS011;27746;52.228;20.890;2023-06-26T11:05:27;32.55;;;5.22;;
42084;SDS011;27746;52.228;20.890;2023-06-26T11:08:04;13.98;;;4.28;;
42084;SDS011;27746;52.228;20.890;2023-06-26T11:10:48;7.05;;;3.42;;
42084;SDS011;27746;52.228;20.890;2023-06-26T11:13:17;10.93;;;3.50;;
42084;SDS011;27746;52.228;20.890;2023-06-26T11:15:45;8.63;;;3.67;;
42084;SDS011;27746;52.228;20.890;2023-06-26T11:18:12;7.10;;;3.17;;
42084;SDS011;27746;52.228;20.890;2023-06-26T11:20:40;5.82;;;3.38;;
42084;SDS011;27746;52.228;20.890;2023-06-26T11:23:07;6.78;;;3.20;;
42084;SDS011;27746;52.228;20.890;2023-06-26T11:25:35;6.65;;;3.50;;
42084;SDS011;27746;52.228;20.890;2023-06-26T11:28:03;8.68;;;3.10;;
42084;SDS011;27746;52.228;20.890;2023-06-26T11:30:31;6.65;;;3.17;;
42084;SDS011;27746;52.228;20.890;2023-06-26T11:33:05;6.05;;;3.13;;
42084;SDS011;27746;52.228;20.890;2023-06-26T11:35:32;8.50;;;3.78;;
42084;SDS011;27746;52.228;20.890;2023-06-26T11:38:02;11.52;;;3.55;;
42084;SDS011;27746;52.228;20.890;2023-06-26T11:40:30;4.50;;;3.00;;
42084;SDS011;27746;52.228;20.890;2023-06-26T11:42:58;4.03;;;2.92;;
42084;SDS011;27746;52.228;20.890;2023-06-26T11:45:27;4.72;;;2.95;;
42084;SDS011;27746;52.228;20.890;2023-06-26T11:47:54;4.93;;;2.78;;
42084;SDS011;27746;52.228;20.890;2023-06-26T11:50:22;3.78;;;2.70;;
42084;SDS011;27746;52.228;20.890;2023-06-26T11:52:52;4.82;;;3.10;;
42084;SDS011;27746;52.228;20.890;2023-06-26T11:55:22;3.88;;;2.67;;
42084;SDS011;27746;52.228;20.890;2023-06-26T11:57:49;8.10;;;2.67;;
42084;SDS011;27746;52.228;20.890;2023-06-26T12:00:16;8.40;;;2.90;;
42084;SDS011;27746;52.228;20.890;2023-06-26T12:02:44;4.75;;;3.00;;
42084;SDS011;27746;52.228;20.890;2023-06-26T12:05:12;5.10;;;2.58;;
42084;SDS011;27746;52.228;20.890;2023-06-26T12:07:40;4.68;;;2.72;;
42084;SDS011;27746;52.228;20.890;2023-06-26T12:10:09;5.30;;;3.05;;
42084;SDS011;27746;52.228;20.890;2023-06-26T12:12:38;4.43;;;2.72;;
42084;SDS011;27746;52.228;20.890;2023-06-26T12:15:06;3.83;;;2.35;;
42084;SDS011;27746;52.228;20.890;2023-06-26T12:17:36;4.07;;;2.60;;
42084;SDS011;27746;52.228;20.890;2023-06-26T12:20:05;5.78;;;3.15;;
42084;SDS011;27746;52.228;20.890;2023-06-26T12:22:43;5.20;;;3.15;;
42084;SDS011;27746;52.228;20.890;2023-06-26T12:25:12;5.00;;;2.67;;
42084;SDS011;27746;52.228;20.890;2023-06-26T12:27:44;3.70;;;2.78;;
42084;SDS011;27746;52.228;20.890;2023-06-26T12:30:12;4.07;;;2.80;;
42084;SDS011;27746;52.228;20.890;2023-06-26T12:32:39;3.65;;;2.50;;
42084;SDS011;27746;52.228;20.890;2023-06-26T12:35:06;4.72;;;2.83;;
42084;SDS011;27746;52.228;20.890;2023-06-26T12:37:36;4.55;;;3.00;;
42084;SDS011;27746;52.228;20.890;2023-06-26T12:40:15;5.53;;;2.78;;
42084;SDS011;27746;52.228;20.890;2023-06-26T12:42:45;4.70;;;2.75;;
42084;SDS011;27746;52.228;20.890;2023-06-26T12:45:13;7.03;;;2.97;;
42084;SDS011;27746;52.228;20.890;2023-06-26T12:47:40;7.32;;;3.10;;
42084;SDS011;27746;52.228;20.890;2023-06-26T12:50:07;5.80;;;2.80;;
42084;SDS011;27746;52.228;20.890;2023-06-26T12:52:34;5.40;;;2.83;;
42084;SDS011;27746;52.228;20.890;2023-06-26T12:55:02;4.43;;;2.72;;
42084;SDS011;27746;52.228;20.890;2023-06-26T12:57:31;5.20;;;3.13;;
42084;SDS011;27746;52.228;20.890;2023-06-26T12:59:59;3.97;;;2.72;;
42084;SDS011;27746;52.228;20.890;2023-06-26T13:02:26;6.88;;;2.88;;
42084;SDS011;27746;52.228;20.890;2023-06-26T13:04:53;6.03;;;3.47;;
42084;SDS011;27746;52.228;20.890;2023-06-26T13:07:20;5.90;;;3.10;;
42084;SDS011;27746;52.228;20.890;2023-06-26T13:09:50;4.90;;;2.72;;
42084;SDS011;27746;52.228;20.890;2023-06-26T13:12:16;7.00;;;3.80;;
42084;SDS011;27746;52.228;20.890;2023-06-26T13:14:43;5.90;;;3.25;;
42084;SDS011;27746;52.228;20.890;2023-06-26T13:17:12;8.68;;;3.58;;
42084;SDS011;27746;52.228;20.890;2023-06-26T13:19:39;5.78;;;3.08;;
42084;SDS011;27746;52.228;20.890;2023-06-26T13:22:06;14.23;;;3.50;;
42084;SDS011;27746;52.228;20.890;2023-06-26T13:24:33;9.38;;;3.15;;
42084;SDS011;27746;52.228;20.890;2023-06-26T13:27:00;6.03;;;3.08;;
42084;SDS011;27746;52.228;20.890;2023-06-26T13:29:28;5.95;;;2.97;;
42084;SDS011;27746;52.228;20.890;2023-06-26T13:31:55;7.35;;;3.20;;
42084;SDS011;27746;52.228;20.890;2023-06-26T13:34:24;4.95;;;2.67;;
42084;SDS011;27746;52.228;20.890;2023-06-26T13:36:53;4.70;;;2.95;;
42084;SDS011;27746;52.228;20.890;2023-06-26T13:39:21;6.43;;;3.63;;
42084;SDS011;27746;52.228;20.890;2023-06-26T13:41:47;5.80;;;3.45;;
42084;SDS011;27746;52.228;20.890;2023-06-26T13:44:15;6.00;;;2.90;;
42084;SDS011;27746;52.228;20.890;2023-06-26T13:46:42;6.38;;;2.90;;
42084;SDS011;27746;52.228;20.890;2023-06-26T13:49:09;4.57;;;2.95;;
42084;SDS011;27746;52.228;20.890;2023-06-26T13:51:37;4.90;;;2.60;;
42084;SDS011;27746;52.228;20.890;2023-06-26T13:54:10;5.55;;;3.25;;
42084;SDS011;27746;52.228;20.890;2023-06-26T13:56:37;5.28;;;3.00;;
42084;SDS011;27746;52.228;20.890;2023-06-26T13:59:04;4.80;;;2.40;;
42084;SDS011;27746;52.228;20.890;2023-06-26T14:01:31;6.13;;;3.15;;
42084;SDS011;27746;52.228;20.890;2023-06-26T14:03:58;5.82;;;3.33;;
42084;SDS011;27746;52.228;20.890;2023-06-26T14:06:25;4.22;;;3.08;;
42084;SDS011;27746;52.228;20.890;2023-06-26T14:08:54;5.43;;;3.40;;
42084;SDS011;27746;52.228;20.890;2023-06-26T14:11:21;6.93;;;4.07;;
42084;SDS011;27746;52.228;20.890;2023-06-26T14:13:48;5.85;;;3.00;;
42084;SDS011;27746;52.228;20.890;2023-06-26T14:16:15;5.57;;;4.30;;
42084;SDS011;27746;52.228;20.890;2023-06-26T14:18:43;5.13;;;3.28;;
42084;SDS011;27746;52.228;20.890;2023-06-26T14:21:11;5.30;;;2.75;;
42084;SDS011;27746;52.228;20.890;2023-06-26T14:23:38;6.57;;;3.25;;
42084;SDS011;27746;52.228;20.890;2023-06-26T14:26:06;6.20;;;3.08;;
42084;SDS011;27746;52.228;20.890;2023-06-26T14:28:33;6.10;;;3.35;;
42084;SDS011;27746;52.228;20.890;2023-06-26T14:31:00;5.00;;;2.72;;
42084;SDS011;27746;52.228;20.890;2023-06-26T14:33:27;4.65;;;3.08;;